sensor_id;sensor_type;location;lat;lon;timestamp;pressure;altitude;pressure_sealevel;temperature;humidity
57250;BME280;43102;52.014;-0.680;2023-06-24T00:00:00;101502;;;22.04;59.48
57250;BME280;43102;52.014;-0.680;2023-06-24T00:01:00;101502;;;22.04;59.48
57250;BME280;43102;52.014;-0.680;2023-06-24T00:02:00;101504;;;21.95;59.55
57250;BME280;43102;52.014;-0.680;2023-06-24T00:03:00;101504;;;21.95;59.55
57250;BME280;43102;52.014;-0.680;2023-06-24T00:04:00;101504;;;21.95;59.55
57250;BME280;43102;52.014;-0.680;2023-06-24T00:05:00;101504;;;21.95;59.55
57250;BME280;43102;52.014;-0.680;2023-06-24T00:06:00;101504;;;21.95;59.55
57250;BME280;43102;52.014;-0.680;2023-06-24T00:07:00;101502;;;21.85;59.85
57250;BME280;43102;52.014;-0.680;2023-06-24T00:08:00;101502;;;21.85;59.85
57250;BME280;43102;52.014;-0.680;2023-06-24T00:09:00;101502;;;21.85;59.85
57250;BME280;43102;52.014;-0.680;2023-06-24T00:10:00;101502;;;21.85;59.85
57250;BME280;43102;52.014;-0.680;2023-06-24T00:11:01;101502;;;21.85;59.85
57250;BME280;43102;52.014;-0.680;2023-06-24T00:12:00;101501;;;21.82;59.90
57250;BME280;43102;52.014;-0.680;2023-06-24T00:13:00;101501;;;21.82;59.90
57250;BME280;43102;52.014;-0.680;2023-06-24T00:14:00;101501;;;21.82;59.90
57250;BME280;43102;52.014;-0.680;2023-06-24T00:15:00;101501;;;21.82;59.90
57250;BME280;43102;52.014;-0.680;2023-06-24T00:16:00;101501;;;21.82;59.90
57250;BME280;43102;52.014;-0.680;2023-06-24T00:17:00;101499;;;21.78;59.54
57250;BME280;43102;52.014;-0.680;2023-06-24T00:18:00;101499;;;21.78;59.54
57250;BME280;43102;52.014;-0.680;2023-06-24T00:19:00;101499;;;21.78;59.54
57250;BME280;43102;52.014;-0.680;2023-06-24T00:20:00;101499;;;21.78;59.54
57250;BME280;43102;52.014;-0.680;2023-06-24T00:21:00;101499;;;21.78;59.54
57250;BME280;43102;52.014;-0.680;2023-06-24T00:22:00;101500;;;21.66;60.26
57250;BME280;43102;52.014;-0.680;2023-06-24T00:23:00;101500;;;21.66;60.26
57250;BME280;43102;52.014;-0.680;2023-06-24T00:24:00;101500;;;21.66;60.26
57250;BME280;43102;52.014;-0.680;2023-06-24T00:25:00;101500;;;21.66;60.26
57250;BME280;43102;52.014;-0.680;2023-06-24T00:26:00;101500;;;21.66;60.26
57250;BME280;43102;52.014;-0.680;2023-06-24T00:27:00;101492;;;21.61;60.16
57250;BME280;43102;52.014;-0.680;2023-06-24T00:28:00;101492;;;21.61;60.16
57250;BME280;43102;52.014;-0.680;2023-06-24T00:29:00;101492;;;21.61;60.16
57250;BME280;43102;52.014;-0.680;2023-06-24T00:30:00;101492;;;21.61;60.16
57250;BME280;43102;52.014;-0.680;2023-06-24T00:31:00;101492;;;21.61;60.16
57250;BME280;43102;52.014;-0.680;2023-06-24T00:32:00;101501;;;21.54;60.18
57250;BME280;43102;52.014;-0.680;2023-06-24T00:33:00;101501;;;21.54;60.18
57250;BME280;43102;52.014;-0.680;2023-06-24T00:34:00;101501;;;21.54;60.18
57250;BME280;43102;52.014;-0.680;2023-06-24T00:35:00;101501;;;21.54;60.18
57250;BME280;43102;52.014;-0.680;2023-06-24T00:36:00;101501;;;21.54;60.18
57250;BME280;43102;52.014;-0.680;2023-06-24T00:37:00;101498;;;21.47;60.37
57250;BME280;43102;52.014;-0.680;2023-06-24T00:38:00;101498;;;21.47;60.37
57250;BME280;43102;52.014;-0.680;2023-06-24T00:39:00;101498;;;21.47;60.37
57250;BME280;43102;52.014;-0.680;2023-06-24T00:40:00;101498;;;21.47;60.37
57250;BME280;43102;52.014;-0.680;2023-06-24T00:41:00;101498;;;21.47;60.37
57250;BME280;43102;52.014;-0.680;2023-06-24T00:42:00;101500;;;21.39;60.67
57250;BME280;43102;52.014;-0.680;2023-06-24T00:43:00;101500;;;21.39;60.67
57250;BME280;43102;52.014;-0.680;2023-06-24T00:44:00;101500;;;21.39;60.67
57250;BME280;43102;52.014;-0.680;2023-06-24T00:45:00;101500;;;21.39;60.67
57250;BME280;43102;52.014;-0.680;2023-06-24T00:46:00;101500;;;21.39;60.67
57250;BME280;43102;52.014;-0.680;2023-06-24T00:47:00;101499;;;21.33;60.76
57250;BME280;43102;52.014;-0.680;2023-06-24T00:48:00;101499;;;21.33;60.76
57250;BME280;43102;52.014;-0.680;2023-06-24T00:49:00;101499;;;21.33;60.76
57250;BME280;43102;52.014;-0.680;2023-06-24T00:50:00;101499;;;21.33;60.76
57250;BME280;43102;52.014;-0.680;2023-06-24T00:51:00;101499;;;21.33;60.76
57250;BME280;43102;52.014;-0.680;2023-06-24T00:52:00;101504;;;21.29;61.19
57250;BME280;43102;52.014;-0.680;2023-06-24T00:53:00;101504;;;21.29;61.19
57250;BME280;43102;52.014;-0.680;2023-06-24T00:54:00;101504;;;21.29;61.19
57250;BME280;43102;52.014;-0.680;2023-06-24T00:55:00;101504;;;21.29;61.19
57250;BME280;43102;52.014;-0.680;2023-06-24T00:56:00;101504;;;21.29;61.19
57250;BME280;43102;52.014;-0.680;2023-06-24T00:57:00;101509;;;21.27;60.89
57250;BME280;43102;52.014;-0.680;2023-06-24T00:58:00;101509;;;21.27;60.89
57250;BME280;43102;52.014;-0.680;2023-06-24T00:59:00;101509;;;21.27;60.89
57250;BME280;43102;52.014;-0.680;2023-06-24T01:00:00;101509;;;21.27;60.89
57250;BME280;43102;52.014;-0.680;2023-06-24T01:01:00;101509;;;21.27;60.89
57250;BME280;43102;52.014;-0.680;2023-06-24T01:02:00;101500;;;21.21;61.03
57250;BME280;43102;52.014;-0.680;2023-06-24T01:03:00;101500;;;21.21;61.03
57250;BME280;43102;52.014;-0.680;2023-06-24T01:04:00;101500;;;21.21;61.03
57250;BME280;43102;52.014;-0.680;2023-06-24T01:05:00;101500;;;21.21;61.03
57250;BME280;43102;52.014;-0.680;2023-06-24T01:06:00;101500;;;21.21;61.03
57250;BME280;43102;52.014;-0.680;2023-06-24T01:07:00;101493;;;21.14;61.09
57250;BME280;43102;52.014;-0.680;2023-06-24T01:08:00;101493;;;21.14;61.09
57250;BME280;43102;52.014;-0.680;2023-06-24T01:09:00;101493;;;21.14;61.09
57250;BME280;43102;52.014;-0.680;2023-06-24T01:10:00;101493;;;21.14;61.09
57250;BME280;43102;52.014;-0.680;2023-06-24T01:11:00;101493;;;21.14;61.09
57250;BME280;43102;52.014;-0.680;2023-06-24T01:12:00;101494;;;21.17;61.12
57250;BME280;43102;52.014;-0.680;2023-06-24T01:13:00;101494;;;21.17;61.12
57250;BME280;43102;52.014;-0.680;2023-06-24T01:14:00;101494;;;21.17;61.12
57250;BME280;43102;52.014;-0.680;2023-06-24T01:15:00;101494;;;21.17;61.12
57250;BME280;43102;52.014;-0.680;2023-06-24T01:16:00;101494;;;21.17;61.12
57250;BME280;43102;52.014;-0.680;2023-06-24T01:17:03;101491;;;21.08;61.18
57250;BME280;43102;52.014;-0.680;2023-06-24T01:18:02;101491;;;21.08;61.18
57250;BME280;43102;52.014;-0.680;2023-06-24T01:19:04;101491;;;21.08;61.18
57250;BME280;43102;52.014;-0.680;2023-06-24T01:20:02;101491;;;21.08;61.18
57250;BME280;43102;52.014;-0.680;2023-06-24T01:27:19;101484;;;21.00;61.51
57250;BME280;43102;52.014;-0.680;2023-06-24T01:28:07;101484;;;21.00;61.51
57250;BME280;43102;52.014;-0.680;2023-06-24T01:31:06;101484;;;21.00;61.51
57250;BME280;43102;52.014;-0.680;2023-06-24T01:33:02;101477;;;20.96;61.55
57250;BME280;43102;52.014;-0.680;2023-06-24T01:34:02;101477;;;20.96;61.55
57250;BME280;43102;52.014;-0.680;2023-06-24T01:35:00;101477;;;20.96;61.55
57250;BME280;43102;52.014;-0.680;2023-06-24T01:36:00;101477;;;20.96;61.55
57250;BME280;43102;52.014;-0.680;2023-06-24T01:38:01;101474;;;20.94;61.66
57250;BME280;43102;52.014;-0.680;2023-06-24T01:39:02;101474;;;20.94;61.66
57250;BME280;43102;52.014;-0.680;2023-06-24T01:41:00;101474;;;20.94;61.66
57250;BME280;43102;52.014;-0.680;2023-06-24T01:42:03;101470;;;20.91;61.84
57250;BME280;43102;52.014;-0.680;2023-06-24T01:43:01;101470;;;20.91;61.84
57250;BME280;43102;52.014;-0.680;2023-06-24T01:44:00;101470;;;20.91;61.84
57250;BME280;43102;52.014;-0.680;2023-06-24T01:45:00;101470;;;20.91;61.84
57250;BME280;43102;52.014;-0.680;2023-06-24T01:46:00;101470;;;20.91;61.84
57250;BME280;43102;52.014;-0.680;2023-06-24T01:47:00;101465;;;20.86;61.92
57250;BME280;43102;52.014;-0.680;2023-06-24T01:48:08;101465;;;20.86;61.92
57250;BME280;43102;52.014;-0.680;2023-06-24T01:49:01;101465;;;20.86;61.92
57250;BME280;43102;52.014;-0.680;2023-06-24T01:50:00;101465;;;20.86;61.92
57250;BME280;43102;52.014;-0.680;2023-06-24T01:51:01;101465;;;20.86;61.92
57250;BME280;43102;52.014;-0.680;2023-06-24T01:52:00;101463;;;20.79;62.31
57250;BME280;43102;52.014;-0.680;2023-06-24T01:53:01;101463;;;20.79;62.31
57250;BME280;43102;52.014;-0.680;2023-06-24T01:54:00;101463;;;20.79;62.31
57250;BME280;43102;52.014;-0.680;2023-06-24T01:55:00;101463;;;20.79;62.31
57250;BME280;43102;52.014;-0.680;2023-06-24T01:56:00;101463;;;20.79;62.31
57250;BME280;43102;52.014;-0.680;2023-06-24T01:57:00;101468;;;20.76;62.22
57250;BME280;43102;52.014;-0.680;2023-06-24T01:58:00;101468;;;20.76;62.22
57250;BME280;43102;52.014;-0.680;2023-06-24T01:59:00;101468;;;20.76;62.22
57250;BME280;43102;52.014;-0.680;2023-06-24T02:00:00;101468;;;20.76;62.22
57250;BME280;43102;52.014;-0.680;2023-06-24T02:01:00;101468;;;20.76;62.22
57250;BME280;43102;52.014;-0.680;2023-06-24T02:02:00;101466;;;20.73;62.28
57250;BME280;43102;52.014;-0.680;2023-06-24T02:03:00;101466;;;20.73;62.28
57250;BME280;43102;52.014;-0.680;2023-06-24T02:04:00;101466;;;20.73;62.28
57250;BME280;43102;52.014;-0.680;2023-06-24T02:05:00;101466;;;20.73;62.28
57250;BME280;43102;52.014;-0.680;2023-06-24T02:06:00;101466;;;20.73;62.28
57250;BME280;43102;52.014;-0.680;2023-06-24T02:07:00;101472;;;20.66;62.40
57250;BME280;43102;52.014;-0.680;2023-06-24T02:08:00;101472;;;20.66;62.40
57250;BME280;43102;52.014;-0.680;2023-06-24T02:09:00;101472;;;20.66;62.40
57250;BME280;43102;52.014;-0.680;2023-06-24T02:10:00;101472;;;20.66;62.40
57250;BME280;43102;52.014;-0.680;2023-06-24T02:11:00;101472;;;20.66;62.40
57250;BME280;43102;52.014;-0.680;2023-06-24T02:12:01;101472;;;20.63;62.44
57250;BME280;43102;52.014;-0.680;2023-06-24T02:13:00;101472;;;20.63;62.44
57250;BME280;43102;52.014;-0.680;2023-06-24T02:14:01;101472;;;20.63;62.44
57250;BME280;43102;52.014;-0.680;2023-06-24T02:15:00;101472;;;20.63;62.44
57250;BME280;43102;52.014;-0.680;2023-06-24T02:16:00;101472;;;20.63;62.44
57250;BME280;43102;52.014;-0.680;2023-06-24T02:17:00;101472;;;20.53;62.99
57250;BME280;43102;52.014;-0.680;2023-06-24T02:18:00;101472;;;20.53;62.99
57250;BME280;43102;52.014;-0.680;2023-06-24T02:19:00;101472;;;20.53;62.99
57250;BME280;43102;52.014;-0.680;2023-06-24T02:20:00;101472;;;20.53;62.99
57250;BME280;43102;52.014;-0.680;2023-06-24T02:21:00;101472;;;20.53;62.99
57250;BME280;43102;52.014;-0.680;2023-06-24T02:22:00;101474;;;20.51;63.02
57250;BME280;43102;52.014;-0.680;2023-06-24T02:23:00;101474;;;20.51;63.02
57250;BME280;43102;52.014;-0.680;2023-06-24T02:24:00;101474;;;20.51;63.02
57250;BME280;43102;52.014;-0.680;2023-06-24T02:25:00;101474;;;20.51;63.02
57250;BME280;43102;52.014;-0.680;2023-06-24T02:26:00;101474;;;20.51;63.02
57250;BME280;43102;52.014;-0.680;2023-06-24T02:27:00;101466;;;20.43;63.16
57250;BME280;43102;52.014;-0.680;2023-06-24T02:28:00;101466;;;20.43;63.16
57250;BME280;43102;52.014;-0.680;2023-06-24T02:29:00;101466;;;20.43;63.16
57250;BME280;43102;52.014;-0.680;2023-06-24T02:30:00;101466;;;20.43;63.16
57250;BME280;43102;52.014;-0.680;2023-06-24T02:31:00;101466;;;20.43;63.16
57250;BME280;43102;52.014;-0.680;2023-06-24T02:32:00;101470;;;20.41;62.99
57250;BME280;43102;52.014;-0.680;2023-06-24T02:33:00;101470;;;20.41;62.99
57250;BME280;43102;52.014;-0.680;2023-06-24T02:34:00;101470;;;20.41;62.99
57250;BME280;43102;52.014;-0.680;2023-06-24T02:35:00;101470;;;20.41;62.99
57250;BME280;43102;52.014;-0.680;2023-06-24T02:36:00;101470;;;20.41;62.99
57250;BME280;43102;52.014;-0.680;2023-06-24T02:37:00;101464;;;20.38;63.15
57250;BME280;43102;52.014;-0.680;2023-06-24T02:38:00;101464;;;20.38;63.15
57250;BME280;43102;52.014;-0.680;2023-06-24T02:39:00;101464;;;20.38;63.15
57250;BME280;43102;52.014;-0.680;2023-06-24T02:40:00;101464;;;20.38;63.15
57250;BME280;43102;52.014;-0.680;2023-06-24T02:41:00;101464;;;20.38;63.15
57250;BME280;43102;52.014;-0.680;2023-06-24T02:42:00;101466;;;20.34;63.03
57250;BME280;43102;52.014;-0.680;2023-06-24T02:43:00;101466;;;20.34;63.03
57250;BME280;43102;52.014;-0.680;2023-06-24T02:44:00;101466;;;20.34;63.03
57250;BME280;43102;52.014;-0.680;2023-06-24T02:45:00;101466;;;20.34;63.03
57250;BME280;43102;52.014;-0.680;2023-06-24T02:46:00;101466;;;20.34;63.03
57250;BME280;43102;52.014;-0.680;2023-06-24T02:47:00;101467;;;20.30;63.20
57250;BME280;43102;52.014;-0.680;2023-06-24T02:48:00;101467;;;20.30;63.20
57250;BME280;43102;52.014;-0.680;2023-06-24T02:49:00;101467;;;20.30;63.20
57250;BME280;43102;52.014;-0.680;2023-06-24T02:50:00;101467;;;20.30;63.20
57250;BME280;43102;52.014;-0.680;2023-06-24T02:51:00;101467;;;20.30;63.20
57250;BME280;43102;52.014;-0.680;2023-06-24T02:52:00;101478;;;20.25;63.37
57250;BME280;43102;52.014;-0.680;2023-06-24T02:53:00;101478;;;20.25;63.37
57250;BME280;43102;52.014;-0.680;2023-06-24T02:54:00;101478;;;20.25;63.37
57250;BME280;43102;52.014;-0.680;2023-06-24T02:55:00;101478;;;20.25;63.37
57250;BME280;43102;52.014;-0.680;2023-06-24T02:56:00;101478;;;20.25;63.37
57250;BME280;43102;52.014;-0.680;2023-06-24T02:57:00;101484;;;20.21;63.29
57250;BME280;43102;52.014;-0.680;2023-06-24T02:58:00;101484;;;20.21;63.29
57250;BME280;43102;52.014;-0.680;2023-06-24T02:59:00;101484;;;20.21;63.29
57250;BME280;43102;52.014;-0.680;2023-06-24T03:00:00;101484;;;20.21;63.29
57250;BME280;43102;52.014;-0.680;2023-06-24T03:01:00;101484;;;20.21;63.29
57250;BME280;43102;52.014;-0.680;2023-06-24T03:02:00;101478;;;20.13;63.39
57250;BME280;43102;52.014;-0.680;2023-06-24T03:03:00;101478;;;20.13;63.39
57250;BME280;43102;52.014;-0.680;2023-06-24T03:04:00;101478;;;20.13;63.39
57250;BME280;43102;52.014;-0.680;2023-06-24T03:05:00;101478;;;20.13;63.39
57250;BME280;43102;52.014;-0.680;2023-06-24T03:06:00;101478;;;20.13;63.39
57250;BME280;43102;52.014;-0.680;2023-06-24T03:07:00;101474;;;20.09;63.44
57250;BME280;43102;52.014;-0.680;2023-06-24T03:08:00;101474;;;20.09;63.44
57250;BME280;43102;52.014;-0.680;2023-06-24T03:09:00;101474;;;20.09;63.44
57250;BME280;43102;52.014;-0.680;2023-06-24T03:10:01;101474;;;20.09;63.44
57250;BME280;43102;52.014;-0.680;2023-06-24T03:11:00;101474;;;20.09;63.44
57250;BME280;43102;52.014;-0.680;2023-06-24T03:12:00;101471;;;20.03;63.51
57250;BME280;43102;52.014;-0.680;2023-06-24T03:13:00;101471;;;20.03;63.51
57250;BME280;43102;52.014;-0.680;2023-06-24T03:14:00;101471;;;20.03;63.51
57250;BME280;43102;52.014;-0.680;2023-06-24T03:15:00;101471;;;20.03;63.51
57250;BME280;43102;52.014;-0.680;2023-06-24T03:16:00;101471;;;20.03;63.51
57250;BME280;43102;52.014;-0.680;2023-06-24T03:17:00;101485;;;19.97;63.56
57250;BME280;43102;52.014;-0.680;2023-06-24T03:18:00;101485;;;19.97;63.56
57250;BME280;43102;52.014;-0.680;2023-06-24T03:19:00;101485;;;19.97;63.56
57250;BME280;43102;52.014;-0.680;2023-06-24T03:20:00;101485;;;19.97;63.56
57250;BME280;43102;52.014;-0.680;2023-06-24T03:21:00;101485;;;19.97;63.56
57250;BME280;43102;52.014;-0.680;2023-06-24T03:22:00;101482;;;19.95;64.02
57250;BME280;43102;52.014;-0.680;2023-06-24T03:23:00;101482;;;19.95;64.02
57250;BME280;43102;52.014;-0.680;2023-06-24T03:24:00;101482;;;19.95;64.02
57250;BME280;43102;52.014;-0.680;2023-06-24T03:25:00;101482;;;19.95;64.02
57250;BME280;43102;52.014;-0.680;2023-06-24T03:26:00;101482;;;19.95;64.02
57250;BME280;43102;52.014;-0.680;2023-06-24T03:27:00;101473;;;19.93;63.82
57250;BME280;43102;52.014;-0.680;2023-06-24T03:28:00;101473;;;19.93;63.82
57250;BME280;43102;52.014;-0.680;2023-06-24T03:29:00;101473;;;19.93;63.82
57250;BME280;43102;52.014;-0.680;2023-06-24T03:30:00;101473;;;19.93;63.82
57250;BME280;43102;52.014;-0.680;2023-06-24T03:31:01;101473;;;19.93;63.82
57250;BME280;43102;52.014;-0.680;2023-06-24T03:32:00;101470;;;19.85;63.75
57250;BME280;43102;52.014;-0.680;2023-06-24T03:33:00;101470;;;19.85;63.75
57250;BME280;43102;52.014;-0.680;2023-06-24T03:34:00;101470;;;19.85;63.75
57250;BME280;43102;52.014;-0.680;2023-06-24T03:35:00;101470;;;19.85;63.75
57250;BME280;43102;52.014;-0.680;2023-06-24T03:36:00;101470;;;19.85;63.75
57250;BME280;43102;52.014;-0.680;2023-06-24T03:37:00;101470;;;19.82;63.82
57250;BME280;43102;52.014;-0.680;2023-06-24T03:38:00;101470;;;19.82;63.82
57250;BME280;43102;52.014;-0.680;2023-06-24T03:39:00;101470;;;19.82;63.82
57250;BME280;43102;52.014;-0.680;2023-06-24T03:40:00;101470;;;19.82;63.82
57250;BME280;43102;52.014;-0.680;2023-06-24T03:41:00;101470;;;19.82;63.82
57250;BME280;43102;52.014;-0.680;2023-06-24T03:42:00;101472;;;19.78;63.82
57250;BME280;43102;52.014;-0.680;2023-06-24T03:43:00;101472;;;19.78;63.82
57250;BME280;43102;52.014;-0.680;2023-06-24T03:44:00;101472;;;19.78;63.82
57250;BME280;43102;52.014;-0.680;2023-06-24T03:45:00;101472;;;19.78;63.82
57250;BME280;43102;52.014;-0.680;2023-06-24T03:46:00;101472;;;19.78;63.82
57250;BME280;43102;52.014;-0.680;2023-06-24T03:47:00;101476;;;19.75;63.90
57250;BME280;43102;52.014;-0.680;2023-06-24T03:48:00;101476;;;19.75;63.90
57250;BME280;43102;52.014;-0.680;2023-06-24T03:49:00;101476;;;19.75;63.90
57250;BME280;43102;52.014;-0.680;2023-06-24T03:50:00;101476;;;19.75;63.90
57250;BME280;43102;52.014;-0.680;2023-06-24T03:51:00;101476;;;19.75;63.90
57250;BME280;43102;52.014;-0.680;2023-06-24T03:52:00;101470;;;19.69;64.56
57250;BME280;43102;52.014;-0.680;2023-06-24T03:53:00;101470;;;19.69;64.56
57250;BME280;43102;52.014;-0.680;2023-06-24T03:54:00;101470;;;19.69;64.56
57250;BME280;43102;52.014;-0.680;2023-06-24T03:55:00;101470;;;19.69;64.56
57250;BME280;43102;52.014;-0.680;2023-06-24T03:56:00;101470;;;19.69;64.56
57250;BME280;43102;52.014;-0.680;2023-06-24T03:57:00;101468;;;19.64;64.71
57250;BME280;43102;52.014;-0.680;2023-06-24T03:58:00;101468;;;19.64;64.71
57250;BME280;43102;52.014;-0.680;2023-06-24T03:59:00;101468;;;19.64;64.71
57250;BME280;43102;52.014;-0.680;2023-06-24T04:00:00;101468;;;19.64;64.71
57250;BME280;43102;52.014;-0.680;2023-06-24T04:01:01;101468;;;19.64;64.71
57250;BME280;43102;52.014;-0.680;2023-06-24T04:02:00;101474;;;19.65;64.68
57250;BME280;43102;52.014;-0.680;2023-06-24T04:03:00;101474;;;19.65;64.68
57250;BME280;43102;52.014;-0.680;2023-06-24T04:04:00;101474;;;19.65;64.68
57250;BME280;43102;52.014;-0.680;2023-06-24T04:05:00;101474;;;19.65;64.68
57250;BME280;43102;52.014;-0.680;2023-06-24T04:06:00;101474;;;19.65;64.68
57250;BME280;43102;52.014;-0.680;2023-06-24T04:07:00;101473;;;19.66;64.47
57250;BME280;43102;52.014;-0.680;2023-06-24T04:08:00;101473;;;19.66;64.47
57250;BME280;43102;52.014;-0.680;2023-06-24T04:09:00;101473;;;19.66;64.47
57250;BME280;43102;52.014;-0.680;2023-06-24T04:10:00;101473;;;19.66;64.47
57250;BME280;43102;52.014;-0.680;2023-06-24T04:11:00;101473;;;19.66;64.47
57250;BME280;43102;52.014;-0.680;2023-06-24T04:12:00;101472;;;19.63;64.60
57250;BME280;43102;52.014;-0.680;2023-06-24T04:13:00;101472;;;19.63;64.60
57250;BME280;43102;52.014;-0.680;2023-06-24T04:14:00;101472;;;19.63;64.60
57250;BME280;43102;52.014;-0.680;2023-06-24T04:15:00;101472;;;19.63;64.60
57250;BME280;43102;52.014;-0.680;2023-06-24T04:16:00;101472;;;19.63;64.60
57250;BME280;43102;52.014;-0.680;2023-06-24T04:17:00;101479;;;19.69;64.71
57250;BME280;43102;52.014;-0.680;2023-06-24T04:18:00;101479;;;19.69;64.71
57250;BME280;43102;52.014;-0.680;2023-06-24T04:19:00;101479;;;19.69;64.71
57250;BME280;43102;52.014;-0.680;2023-06-24T04:20:00;101479;;;19.69;64.71
57250;BME280;43102;52.014;-0.680;2023-06-24T04:21:00;101479;;;19.69;64.71
57250;BME280;43102;52.014;-0.680;2023-06-24T04:22:00;101480;;;19.65;65.52
57250;BME280;43102;52.014;-0.680;2023-06-24T04:23:00;101480;;;19.65;65.52
57250;BME280;43102;52.014;-0.680;2023-06-24T04:24:00;101480;;;19.65;65.52
57250;BME280;43102;52.014;-0.680;2023-06-24T04:25:00;101480;;;19.65;65.52
57250;BME280;43102;52.014;-0.680;2023-06-24T04:26:00;101480;;;19.65;65.52
57250;BME280;43102;52.014;-0.680;2023-06-24T04:27:00;101487;;;19.72;65.62
57250;BME280;43102;52.014;-0.680;2023-06-24T04:28:00;101487;;;19.72;65.62
57250;BME280;43102;52.014;-0.680;2023-06-24T04:29:00;101487;;;19.72;65.62
57250;BME280;43102;52.014;-0.680;2023-06-24T04:30:00;101487;;;19.72;65.62
57250;BME280;43102;52.014;-0.680;2023-06-24T04:31:00;101487;;;19.72;65.62
57250;BME280;43102;52.014;-0.680;2023-06-24T04:32:00;101490;;;19.77;65.33
57250;BME280;43102;52.014;-0.680;2023-06-24T04:33:00;101490;;;19.77;65.33
57250;BME280;43102;52.014;-0.680;2023-06-24T04:34:00;101490;;;19.77;65.33
57250;BME280;43102;52.014;-0.680;2023-06-24T04:35:00;101490;;;19.77;65.33
57250;BME280;43102;52.014;-0.680;2023-06-24T04:36:00;101490;;;19.77;65.33
57250;BME280;43102;52.014;-0.680;2023-06-24T04:37:00;101492;;;19.82;65.25
57250;BME280;43102;52.014;-0.680;2023-06-24T04:38:00;101492;;;19.82;65.25
57250;BME280;43102;52.014;-0.680;2023-06-24T04:39:00;101492;;;19.82;65.25
57250;BME280;43102;52.014;-0.680;2023-06-24T04:40:00;101492;;;19.82;65.25
57250;BME280;43102;52.014;-0.680;2023-06-24T04:41:00;101492;;;19.82;65.25
57250;BME280;43102;52.014;-0.680;2023-06-24T04:42:00;101498;;;19.86;65.15
57250;BME280;43102;52.014;-0.680;2023-06-24T04:43:00;101498;;;19.86;65.15
57250;BME280;43102;52.014;-0.680;2023-06-24T04:44:00;101498;;;19.86;65.15
57250;BME280;43102;52.014;-0.680;2023-06-24T04:45:00;101498;;;19.86;65.15
57250;BME280;43102;52.014;-0.680;2023-06-24T04:46:00;101498;;;19.86;65.15
57250;BME280;43102;52.014;-0.680;2023-06-24T04:47:00;101494;;;19.88;65.28
57250;BME280;43102;52.014;-0.680;2023-06-24T04:48:00;101494;;;19.88;65.28
57250;BME280;43102;52.014;-0.680;2023-06-24T04:49:00;101494;;;19.88;65.28
57250;BME280;43102;52.014;-0.680;2023-06-24T04:50:00;101494;;;19.88;65.28
57250;BME280;43102;52.014;-0.680;2023-06-24T04:51:00;101494;;;19.88;65.28
57250;BME280;43102;52.014;-0.680;2023-06-24T04:52:00;101496;;;19.94;65.75
57250;BME280;43102;52.014;-0.680;2023-06-24T04:53:00;101496;;;19.94;65.75
57250;BME280;43102;52.014;-0.680;2023-06-24T04:54:00;101496;;;19.94;65.75
57250;BME280;43102;52.014;-0.680;2023-06-24T04:55:00;101496;;;19.94;65.75
57250;BME280;43102;52.014;-0.680;2023-06-24T04:56:00;101496;;;19.94;65.75
57250;BME280;43102;52.014;-0.680;2023-06-24T04:57:00;101496;;;19.97;65.59
57250;BME280;43102;52.014;-0.680;2023-06-24T04:58:00;101496;;;19.97;65.59
57250;BME280;43102;52.014;-0.680;2023-06-24T04:59:00;101496;;;19.97;65.59
57250;BME280;43102;52.014;-0.680;2023-06-24T05:00:00;101496;;;19.97;65.59
57250;BME280;43102;52.014;-0.680;2023-06-24T05:01:00;101496;;;19.97;65.59
57250;BME280;43102;52.014;-0.680;2023-06-24T05:02:00;101497;;;20.03;65.82
57250;BME280;43102;52.014;-0.680;2023-06-24T05:03:00;101497;;;20.03;65.82
57250;BME280;43102;52.014;-0.680;2023-06-24T05:04:00;101497;;;20.03;65.82
57250;BME280;43102;52.014;-0.680;2023-06-24T05:05:00;101497;;;20.03;65.82
57250;BME280;43102;52.014;-0.680;2023-06-24T05:06:00;101497;;;20.03;65.82
57250;BME280;43102;52.014;-0.680;2023-06-24T05:07:00;101498;;;20.09;65.31
57250;BME280;43102;52.014;-0.680;2023-06-24T05:08:00;101498;;;20.09;65.31
57250;BME280;43102;52.014;-0.680;2023-06-24T05:09:00;101498;;;20.09;65.31
57250;BME280;43102;52.014;-0.680;2023-06-24T05:10:00;101498;;;20.09;65.31
57250;BME280;43102;52.014;-0.680;2023-06-24T05:11:00;101498;;;20.09;65.31
57250;BME280;43102;52.014;-0.680;2023-06-24T05:12:00;101502;;;20.15;65.44
57250;BME280;43102;52.014;-0.680;2023-06-24T05:13:00;101502;;;20.15;65.44
57250;BME280;43102;52.014;-0.680;2023-06-24T05:14:00;101502;;;20.15;65.44
57250;BME280;43102;52.014;-0.680;2023-06-24T05:15:00;101502;;;20.15;65.44
57250;BME280;43102;52.014;-0.680;2023-06-24T05:16:00;101502;;;20.15;65.44
57250;BME280;43102;52.014;-0.680;2023-06-24T05:17:00;101503;;;20.21;65.31
57250;BME280;43102;52.014;-0.680;2023-06-24T05:18:00;101503;;;20.21;65.31
57250;BME280;43102;52.014;-0.680;2023-06-24T05:19:00;101503;;;20.21;65.31
57250;BME280;43102;52.014;-0.680;2023-06-24T05:20:00;101503;;;20.21;65.31
57250;BME280;43102;52.014;-0.680;2023-06-24T05:21:00;101503;;;20.21;65.31
57250;BME280;43102;52.014;-0.680;2023-06-24T05:22:00;101511;;;20.27;65.74
57250;BME280;43102;52.014;-0.680;2023-06-24T05:23:00;101511;;;20.27;65.74
57250;BME280;43102;52.014;-0.680;2023-06-24T05:24:00;101511;;;20.27;65.74
57250;BME280;43102;52.014;-0.680;2023-06-24T05:25:00;101511;;;20.27;65.74
57250;BME280;43102;52.014;-0.680;2023-06-24T05:26:00;101511;;;20.27;65.74
57250;BME280;43102;52.014;-0.680;2023-06-24T05:27:03;101512;;;20.30;65.73
57250;BME280;43102;52.014;-0.680;2023-06-24T05:28:00;101512;;;20.30;65.73
57250;BME280;43102;52.014;-0.680;2023-06-24T05:29:00;101512;;;20.30;65.73
57250;BME280;43102;52.014;-0.680;2023-06-24T05:30:00;101512;;;20.30;65.73
57250;BME280;43102;52.014;-0.680;2023-06-24T05:31:00;101512;;;20.30;65.73
57250;BME280;43102;52.014;-0.680;2023-06-24T05:32:00;101513;;;20.39;65.48